sensor_id;sensor_type;location;lat;lon;timestamp;pressure;altitude;pressure_sealevel;temperature;humidity
20622;BME280;10470;42.670;23.354;2023-02-02T00:00:33;94920.88;;;5.32;100.00
20622;BME280;10470;42.670;23.354;2023-02-02T00:03:19;94924.34;;;5.32;100.00
20622;BME280;10470;42.670;23.354;2023-02-02T00:06:04;94930.56;;;5.29;100.00
20622;BME280;10470;42.670;23.354;2023-02-02T00:08:50;94929.56;;;5.19;100.00
20622;BME280;10470;42.670;23.354;2023-02-02T00:11:35;94931.81;;;5.24;100.00
20622;BME280;10470;42.670;23.354;2023-02-02T00:14:21;94913.72;;;5.21;100.00
20622;BME280;10470;42.670;23.354;2023-02-02T00:17:08;94921.81;;;5.21;100.00
20622;BME280;10470;42.670;23.354;2023-02-02T00:19:54;94925.56;;;5.28;100.00
20622;BME280;10470;42.670;23.354;2023-02-02T00:22:40;94919.75;;;5.29;100.00
20622;BME280;10470;42.670;23.354;2023-02-02T00:25:26;94923.22;;;5.30;100.00
20622;BME280;10470;42.670;23.354;2023-02-02T00:28:13;94923.22;;;5.30;100.00
20622;BME280;10470;42.670;23.354;2023-02-02T00:30:59;94935.66;;;5.23;100.00
20622;BME280;10470;42.670;23.354;2023-02-02T00:33:46;94931.03;;;5.24;100.00
20622;BME280;10470;42.670;23.354;2023-02-02T00:36:32;94931.97;;;5.14;100.00
20622;BME280;10470;42.670;23.354;2023-02-02T00:39:21;94944.34;;;5.11;100.00
20622;BME280;10470;42.670;23.354;2023-02-02T00:42:10;94938.47;;;5.16;100.00
20622;BME280;10470;42.670;23.354;2023-02-02T00:44:55;94942.03;;;5.10;100.00
20622;BME280;10470;42.670;23.354;2023-02-02T00:47:59;94944.47;;;5.28;100.00
20622;BME280;10470;42.670;23.354;2023-02-02T00:50:45;94938.94;;;5.11;100.00
20622;BME280;10470;42.670;23.354;2023-02-02T00:53:30;94932.81;;;5.07;100.00
20622;BME280;10470;42.670;23.354;2023-02-02T00:56:16;94941.59;;;5.15;100.00
20622;BME280;10470;42.670;23.354;2023-02-02T00:59:01;94944.69;;;5.13;100.00
20622;BME280;10470;42.670;23.354;2023-02-02T01:01:47;94929.34;;;5.07;100.00
20622;BME280;10470;42.670;23.354;2023-02-02T01:04:32;94929.34;;;5.07;100.00
20622;BME280;10470;42.670;23.354;2023-02-02T01:07:18;94919.47;;;4.96;100.00
20622;BME280;10470;42.670;23.354;2023-02-02T01:10:05;94914.00;;;5.00;100.00
20622;BME280;10470;42.670;23.354;2023-02-02T01:12:51;94911.75;;;4.95;100.00
20622;BME280;10470;42.670;23.354;2023-02-02T01:15:37;94912.94;;;4.94;100.00
20622;BME280;10470;42.670;23.354;2023-02-02T01:18:22;94914.75;;;5.00;100.00
20622;BME280;10470;42.670;23.354;2023-02-02T01:21:10;94906.56;;;5.08;100.00
20622;BME280;10470;42.670;23.354;2023-02-02T01:23:56;94911.00;;;4.94;100.00
20622;BME280;10470;42.670;23.354;2023-02-02T01:26:41;94894.06;;;4.90;100.00
20622;BME280;10470;42.670;23.354;2023-02-02T01:29:27;94903.66;;;4.95;100.00
20622;BME280;10470;42.670;23.354;2023-02-02T01:32:12;94900.66;;;4.89;100.00
20622;BME280;10470;42.670;23.354;2023-02-02T01:34:58;94894.97;;;4.84;100.00
20622;BME280;10470;42.670;23.354;2023-02-02T01:37:43;94887.63;;;4.57;100.00
20622;BME280;10470;42.670;23.354;2023-02-02T01:40:29;94884.84;;;4.30;100.00
20622;BME280;10470;42.670;23.354;2023-02-02T01:46:29;94882.28;;;4.19;100.00
20622;BME280;10470;42.670;23.354;2023-02-02T01:49:17;94887.69;;;4.19;100.00
20622;BME280;10470;42.670;23.354;2023-02-02T01:52:04;94875.53;;;4.04;100.00
20622;BME280;10470;42.670;23.354;2023-02-02T01:54:53;94867.94;;;3.91;100.00
20622;BME280;10470;42.670;23.354;2023-02-02T01:57:43;94875.72;;;3.86;100.00
20622;BME280;10470;42.670;23.354;2023-02-02T02:00:29;94869.19;;;3.83;100.00
20622;BME280;10470;42.670;23.354;2023-02-02T02:03:18;94860.88;;;3.70;100.00
20622;BME280;10470;42.670;23.354;2023-02-02T02:06:12;94851.22;;;3.73;100.00
20622;BME280;10470;42.670;23.354;2023-02-02T02:09:02;94851.19;;;3.77;100.00
20622;BME280;10470;42.670;23.354;2023-02-02T02:11:47;94856.16;;;3.78;100.00
20622;BME280;10470;42.670;23.354;2023-02-02T02:14:33;94863.22;;;3.68;100.00
20622;BME280;10470;42.670;23.354;2023-02-02T02:21:11;94871.78;;;3.56;100.00
20622;BME280;10470;42.670;23.354;2023-02-02T02:28:32;94869.72;;;3.71;100.00
20622;BME280;10470;42.670;23.354;2023-02-02T02:37:38;94873.19;;;3.71;100.00
20622;BME280;10470;42.670;23.354;2023-02-02T02:46:10;94858.28;;;3.60;100.00
20622;BME280;10470;42.670;23.354;2023-02-02T02:48:57;94860.59;;;3.58;100.00
20622;BME280;10470;42.670;23.354;2023-02-02T02:54:43;94858.28;;;3.60;100.00
20622;BME280;10470;42.670;23.354;2023-02-02T03:00:49;94867.53;;;3.59;100.00
20622;BME280;10470;42.670;23.354;2023-02-02T03:06:59;94837.16;;;3.58;100.00
20622;BME280;10470;42.670;23.354;2023-02-02T03:09:47;94856.97;;;3.75;100.00
20622;BME280;10470;42.670;23.354;2023-02-02T03:12:33;94855.44;;;3.74;100.00
20622;BME280;10470;42.670;23.354;2023-02-02T03:15:27;94856.69;;;3.66;100.00
20622;BME280;10470;42.670;23.354;2023-02-02T03:18:14;94856.00;;;3.58;100.00
20622;BME280;10470;42.670;23.354;2023-02-02T03:21:01;94852.75;;;3.74;100.00
20622;BME280;10470;42.670;23.354;2023-02-02T03:23:47;94848.25;;;3.60;100.00
20622;BME280;10470;42.670;23.354;2023-02-02T03:26:33;94851.75;;;3.57;100.00
20622;BME280;10470;42.670;23.354;2023-02-02T03:29:19;94855.66;;;3.53;100.00
20622;BME280;10470;42.670;23.354;2023-02-02T03:32:04;94841.84;;;3.50;100.00
20622;BME280;10470;42.670;23.354;2023-02-02T03:34:50;94859.19;;;3.42;100.00
20622;BME280;10470;42.670;23.354;2023-02-02T03:37:35;94864.59;;;3.42;100.00
20622;BME280;10470;42.670;23.354;2023-02-02T03:40:21;94860.09;;;3.32;100.00
20622;BME280;10470;42.670;23.354;2023-02-02T03:43:07;94858.44;;;3.42;100.00
20622;BME280;10470;42.670;23.354;2023-02-02T03:46:01;94858.38;;;3.49;100.00
20622;BME280;10470;42.670;23.354;2023-02-02T03:48:48;94862.31;;;3.41;100.00
20622;BME280;10470;42.670;23.354;2023-02-02T03:51:33;94864.31;;;3.33;100.00
20622;BME280;10470;42.670;23.354;2023-02-02T03:54:19;94862.84;;;3.25;100.00
20622;BME280;10470;42.670;23.354;2023-02-02T03:57:04;94866.28;;;3.25;100.00
20622;BME280;10470;42.670;23.354;2023-02-02T03:59:50;94808.25;;;2.76;100.00
20622;BME280;10470;42.670;23.354;2023-02-02T04:02:35;94870.69;;;3.05;100.00
20622;BME280;10470;42.670;23.354;2023-02-02T04:05:21;94874.19;;;2.98;100.00
20622;BME280;10470;42.670;23.354;2023-02-02T04:08:06;94868.81;;;2.98;100.00
20622;BME280;10470;42.670;23.354;2023-02-02T04:10:52;94872.63;;;3.01;100.00
20622;BME280;10470;42.670;23.354;2023-02-02T04:13:37;94866.63;;;2.79;100.00
20622;BME280;10470;42.670;23.354;2023-02-02T04:16:24;94870.50;;;2.74;100.00
20622;BME280;10470;42.670;23.354;2023-02-02T04:19:09;94868.91;;;2.84;100.00
20622;BME280;10470;42.670;23.354;2023-02-02T04:21:56;94869.03;;;2.66;100.00
20622;BME280;10470;42.670;23.354;2023-02-02T04:24:42;94875.56;;;2.61;100.00
20622;BME280;10470;42.670;23.354;2023-02-02T04:27:27;94869.84;;;2.59;100.00
20622;BME280;10470;42.670;23.354;2023-02-02T04:30:16;94869.78;;;2.67;100.00
20622;BME280;10470;42.670;23.354;2023-02-02T04:33:01;94876.34;;;2.62;100.00
20622;BME280;10470;42.670;23.354;2023-02-02T04:35:47;94865.56;;;2.66;100.00
20622;BME280;10470;42.670;23.354;2023-02-02T04:38:32;94867.91;;;2.60;100.00
20622;BME280;10470;42.670;23.354;2023-02-02T04:41:18;94864.78;;;2.69;100.00
20622;BME280;10470;42.670;23.354;2023-02-02T04:44:04;94872.13;;;2.61;100.00
20622;BME280;10470;42.670;23.354;2023-02-02T04:46:50;94881.81;;;2.48;100.00
20622;BME280;10470;42.670;23.354;2023-02-02T04:49:36;94888.31;;;2.50;100.00
20622;BME280;10470;42.670;23.354;2023-02-02T04:52:22;94879.13;;;2.44;100.00
20622;BME280;10470;42.670;23.354;2023-02-02T04:55:07;94877.25;;;2.37;100.00
20622;BME280;10470;42.670;23.354;2023-02-02T04:57:53;94877.22;;;2.45;100.00
20622;BME280;10470;42.670;23.354;2023-02-02T05:00:38;94884.13;;;2.46;100.00
20622;BME280;10470;42.670;23.354;2023-02-02T05:03:23;94886.00;;;2.49;100.00
20622;BME280;10470;42.670;23.354;2023-02-02T05:06:09;94884.53;;;2.37;100.00
20622;BME280;10470;42.670;23.354;2023-02-02T05:08:55;94879.50;;;2.46;100.00
20622;BME280;10470;42.670;23.354;2023-02-02T05:11:40;94882.25;;;2.39;100.00
20622;BME280;10470;42.670;23.354;2023-02-02T05:14:28;94874.94;;;2.39;100.00
20622;BME280;10470;42.670;23.354;2023-02-02T05:17:14;94869.94;;;2.42;100.00
20622;BME280;10470;42.670;23.354;2023-02-02T05:20:02;94878.81;;;2.28;100.00
20622;BME280;10470;42.670;23.354;2023-02-02T05:22:48;94872.25;;;2.36;100.00
20622;BME280;10470;42.670;23.354;2023-02-02T05:25:34;94866.84;;;2.47;100.00
20622;BME280;10470;42.670;23.354;2023-02-02T05:28:20;94872.25;;;2.36;100.00
20622;BME280;10470;42.670;23.354;2023-02-02T05:31:06;94875.78;;;2.22;100.00
20622;BME280;10470;42.670;23.354;2023-02-02T05:33:51;94881.97;;;2.15;100.00
20622;BME280;10470;42.670;23.354;2023-02-02T05:36:37;94880.06;;;2.09;100.00
20622;BME280;10470;42.670;23.354;2023-02-02T05:39:22;94877.81;;;1.89;100.00
20622;BME280;10470;42.670;23.354;2023-02-02T05:42:08;94876.28;;;1.81;100.00
20622;BME280;10470;42.670;23.354;2023-02-02T05:44:53;94894.28;;;2.06;100.00
20622;BME280;10470;42.670;23.354;2023-02-02T05:47:39;94898.13;;;2.01;100.00
20622;BME280;10470;42.670;23.354;2023-02-02T05:50:24;94885.47;;;1.94;100.00
20622;BME280;10470;42.670;23.354;2023-02-02T05:53:12;94891.56;;;2.02;100.00
20622;BME280;10470;42.670;23.354;2023-02-02T05:55:58;94883.13;;;2.11;100.00
20622;BME280;10470;42.670;23.354;2023-02-02T05:58:43;94880.47;;;2.00;100.00
20622;BME280;10470;42.670;23.354;2023-02-02T06:01:31;94907.31;;;2.07;100.00
20622;BME280;10470;42.670;23.354;2023-02-02T06:04:17;94886.22;;;2.02;100.00
20622;BME280;10470;42.670;23.354;2023-02-02T06:07:02;94891.59;;;1.99;100.00
20622;BME280;10470;42.670;23.354;2023-02-02T06:09:48;94895.06;;;1.99;100.00
20622;BME280;10470;42.670;23.354;2023-02-02T06:12:33;94892.34;;;2.06;100.00
20622;BME280;10470;42.670;23.354;2023-02-02T06:15:19;94900.41;;;2.06;100.00
20622;BME280;10470;42.670;23.354;2023-02-02T06:18:04;94888.13;;;2.02;100.00
20622;BME280;10470;42.670;23.354;2023-02-02T06:20:57;94891.19;;;2.04;100.00
20622;BME280;10470;42.670;23.354;2023-02-02T06:23:42;94903.13;;;1.92;100.00
20622;BME280;10470;42.670;23.354;2023-02-02T06:26:29;94900.00;;;2.11;100.00
20622;BME280;10470;42.670;23.354;2023-02-02T06:29:15;94891.53;;;2.20;100.00
20622;BME280;10470;42.670;23.354;2023-02-02T06:32:00;94930.69;;;2.21;100.00
20622;BME280;10470;42.670;23.354;2023-02-02T06:34:46;94931.38;;;2.36;100.00
20622;BME280;10470;42.670;23.354;2023-02-02T06:37:31;94932.53;;;2.38;100.00
20622;BME280;10470;42.670;23.354;2023-02-02T06:40:19;94927.09;;;2.53;100.00
20622;BME280;10470;42.670;23.354;2023-02-02T06:43:04;94937.09;;;2.52;100.00
20622;BME280;10470;42.670;23.354;2023-02-02T06:45:50;94957.44;;;2.57;100.00
20622;BME280;10470;42.670;23.354;2023-02-02T06:48:35;94931.03;;;2.34;100.00
20622;BME280;10470;42.670;23.354;2023-02-02T06:51:21;94924.41;;;2.53;100.00
20622;BME280;10470;42.670;23.354;2023-02-02T06:54:06;94946.59;;;2.75;100.00
20622;BME280;10470;42.670;23.354;2023-02-02T06:56:51;94941.22;;;2.71;100.00
20622;BME280;10470;42.670;23.354;2023-02-02T06:59:37;94942.72;;;2.83;100.00
20622;BME280;10470;42.670;23.354;2023-02-02T07:02:25;94961.22;;;2.70;100.00
20622;BME280;10470;42.670;23.354;2023-02-02T07:05:10;94956.19;;;2.76;100.00
20622;BME280;10470;42.670;23.354;2023-02-02T07:07:55;94942.66;;;2.94;100.00
20622;BME280;10470;42.670;23.354;2023-02-02T07:10:41;94958.75;;;3.01;100.00
20622;BME280;10470;42.670;23.354;2023-02-02T07:13:28;94959.59;;;2.91;100.00
20622;BME280;10470;42.670;23.354;2023-02-02T07:16:15;94955.38;;;2.86;100.00
20622;BME280;10470;42.670;23.354;2023-02-02T07:19:01;94944.91;;;3.02;100.00
20622;BME280;10470;42.670;23.354;2023-02-02T07:21:46;94962.84;;;3.27;100.00
20622;BME280;10470;42.670;23.354;2023-02-02T07:24:32;94960.94;;;3.20;100.00
20622;BME280;10470;42.670;23.354;2023-02-02T07:27:17;94959.13;;;3.06;100.00
20622;BME280;10470;42.670;23.354;2023-02-02T07:30:03;94954.84;;;3.13;100.00
20622;BME280;10470;42.670;23.354;2023-02-02T07:32:49;94947.63;;;2.95;100.00
20622;BME280;10470;42.670;23.354;2023-02-02T07:35:34;94970.28;;;3.01;100.00
20622;BME280;10470;42.670;23.354;2023-02-02T07:38:20;94979.03;;;3.20;100.00
20622;BME280;10470;42.670;23.354;2023-02-02T07:41:05;94968.69;;;3.11;100.00
20622;BME280;10470;42.670;23.354;2023-02-02T07:43:51;94963.13;;;3.36;100.00
20622;BME280;10470;42.670;23.354;2023-02-02T07:46:36;94954.25;;;3.39;100.00
20622;BME280;10470;42.670;23.354;2023-02-02T07:49:22;94959.50;;;3.57;100.00
20622;BME280;10470;42.670;23.354;2023-02-02T07:52:07;94945.50;;;3.77;100.00
20622;BME280;10470;42.670;23.354;2023-02-02T07:54:52;94934.91;;;3.97;100.00
20622;BME280;10470;42.670;23.354;2023-02-02T07:57:38;94926.25;;;4.12;100.00
20622;BME280;10470;42.670;23.354;2023-02-02T08:00:24;94926.94;;;4.24;100.00
20622;BME280;10470;42.670;23.354;2023-02-02T08:03:10;94935.22;;;4.40;100.00
20622;BME280;10470;42.670;23.354;2023-02-02T08:05:57;94931.94;;;4.56;100.00
20622;BME280;10470;42.670;23.354;2023-02-02T08:08:43;94930.00;;;4.56;100.00
20622;BME280;10470;42.670;23.354;2023-02-02T08:11:29;94929.31;;;4.79;100.00
20622;BME280;10470;42.670;23.354;2023-02-02T08:14:14;94926.19;;;5.12;100.00
20622;BME280;10470;42.670;23.354;2023-02-02T08:17:00;94922.78;;;5.35;100.00
20622;BME280;10470;42.670;23.354;2023-02-02T08:19:45;94922.41;;;5.33;100.00
20622;BME280;10470;42.670;23.354;2023-02-02T08:22:31;94923.16;;;5.33;100.00
20622;BME280;10470;42.670;23.354;2023-02-02T08:25:16;94922.16;;;4.96;100.00
20622;BME280;10470;42.670;23.354;2023-02-02T08:28:01;94916.25;;;5.05;100.00
20622;BME280;10470;42.670;23.354;2023-02-02T08:30:49;94906.94;;;5.10;100.00
20622;BME280;10470;42.670;23.354;2023-02-02T08:33:35;94903.50;;;5.06;100.00
20622;BME280;10470;42.670;23.354;2023-02-02T08:36:22;94899.88;;;5.16;100.00
20622;BME280;10470;42.670;23.354;2023-02-02T08:39:10;94899.69;;;5.03;100.00
20622;BME280;10470;42.670;23.354;2023-02-02T08:41:56;94896.69;;;5.24;100.00
20622;BME280;10470;42.670;23.354;2023-02-02T08:44:41;94895.50;;;5.49;100.00
20622;BME280;10470;42.670;23.354;2023-02-02T08:47:30;94890.84;;;5.73;100.00
20622;BME280;10470;42.670;23.354;2023-02-02T08:50:16;94878.31;;;5.83;100.00
20622;BME280;10470;42.670;23.354;2023-02-02T08:53:02;94885.97;;;5.88;100.00
20622;BME280;10470;42.670;23.354;2023-02-02T08:55:48;94881.25;;;5.92;100.00
20622;BME280;10470;42.670;23.354;2023-02-02T08:58:50;94875.97;;;6.08;100.00
20622;BME280;10470;42.670;23.354;2023-02-02T09:01:35;94878.94;;;6.14;100.00
20622;BME280;10470;42.670;23.354;2023-02-02T09:04:21;94894.06;;;6.31;100.00
20622;BME280;10470;42.670;23.354;2023-02-02T09:07:06;94884.28;;;6.38;100.00
20622;BME280;10470;42.670;23.354;2023-02-02T09:09:52;94885.28;;;6.64;100.00
20622;BME280;10470;42.670;23.354;2023-02-02T09:12:39;94887.47;;;6.52;100.00
20622;BME280;10470;42.670;23.354;2023-02-02T09:15:25;94882.84;;;6.13;100.00
20622;BME280;10470;42.670;23.354;2023-02-02T09:18:10;94882.19;;;6.05;100.00
20622;BME280;10470;42.670;23.354;2023-02-02T09:21:03;94885.31;;;6.04;100.00
20622;BME280;10470;42.670;23.354;2023-02-02T09:23:50;94869.09;;;5.80;100.00
20622;BME280;10470;42.670;23.354;2023-02-02T09:26:38;94874.09;;;6.05;100.00
20622;BME280;10470;42.670;23.354;2023-02-02T09:29:24;94866.19;;;5.91;100.00
20622;BME280;10470;42.670;23.354;2023-02-02T09:32:09;94871.16;;;5.96;100.00
20622;BME280;10470;42.670;23.354;2023-02-02T09:34:55;94881.94;;;6.00;100.00
20622;BME280;10470;42.670;23.354;2023-02-02T09:37:40;94870.56;;;6.28;100.00
20622;BME280;10470;42.670;23.354;2023-02-02T09:40:31;94855.22;;;6.42;100.00
20622;BME280;10470;42.670;23.354;2023-02-02T09:49:14;94861.34;;;6.98;100.00
20622;BME280;10470;42.670;23.354;2023-02-02T09:52:08;94870.81;;;7.07;100.00
20622;BME280;10470;42.670;23.354;2023-02-02T09:55:45;94867.38;;;6.70;100.00
20622;BME280;10470;42.670;23.354;2023-02-02T10:01:11;94840.41;;;7.15;100.00
20622;BME280;10470;42.670;23.354;2023-02-02T10:04:21;94853.88;;;7.35;100.00
20622;BME280;10470;42.670;23.354;2023-02-02T10:07:15;94847.19;;;7.56;100.00
20622;BME280;10470;42.670;23.354;2023-02-02T10:10:21;94796.56;;;6.71;100.00
20622;BME280;10470;42.670;23.354;2023-02-02T10:13:20;94811.38;;;6.99;100.00
20622;BME280;10470;42.670;23.354;2023-02-02T10:16:16;94826.19;;;7.28;100.00
20622;BME280;10470;42.670;23.354;2023-02-02T10:19:11;94825.53;;;7.69;100.00
20622;BME280;10470;42.670;23.354;2023-02-02T10:22:11;94825.75;;;7.46;100.00
20622;BME280;10470;42.670;23.354;2023-02-02T10:24:59;94825.59;;;7.82;100.00
20622;BME280;10470;42.670;23.354;2023-02-02T10:28:13;94818.66;;;7.81;100.00
20622;BME280;10470;42.670;23.354;2023-02-02T10:31:01;94806.06;;;8.16;100.00
20622;BME280;10470;42.670;23.354;2023-02-02T10:33:57;94817.09;;;8.09;100.00
20622;BME280;10470;42.670;23.354;2023-02-02T10:40:00;94807.59;;;8.85;100.00
20622;BME280;10470;42.670;23.354;2023-02-02T10:52:19;94774.00;;;8.79;87.61
20622;BME280;10470;42.670;23.354;2023-02-02T11:00:57;94769.44;;;9.93;75.45
20622;BME280;10470;42.670;23.354;2023-02-02T11:03:45;94761.22;;;9.27;74.30
20622;BME280;10470;42.670;23.354;2023-02-02T11:06:30;94759.44;;;9.68;72.82
20622;BME280;10470;42.670;23.354;2023-02-02T11:09:38;94749.56;;;9.61;70.51
20622;BME280;10470;42.670;23.354;2023-02-02T11:12:31;94756.69;;;10.12;67.07
20622;BME280;10470;42.670;23.354;2023-02-02T11:15:27;94780.03;;;9.56;66.54
20622;BME280;10470;42.670;23.354;2023-02-02T11:18:26;94756.34;;;9.78;66.48
20622;BME280;10470;42.670;23.354;2023-02-02T11:24:39;94754.13;;;10.70;63.48
20622;BME280;10470;42.670;23.354;2023-02-02T11:27:32;94791.03;;;10.31;62.39
20622;BME280;10470;42.670;23.354;2023-02-02T11:30:33;94727.44;;;10.25;63.35
20622;BME280;10470;42.670;23.354;2023-02-02T11:36:19;94730.66;;;10.64;60.63
20622;BME280;10470;42.670;23.354;2023-02-02T11:39:34;94725.16;;;10.23;61.52
20622;BME280;10470;42.670;23.354;2023-02-02T11:42:21;94705.28;;;10.14;61.97
20622;BME280;10470;42.670;23.354;2023-02-02T11:45:15;94709.97;;;10.94;59.53
20622;BME280;10470;42.670;23.354;2023-02-02T11:48:14;94704.28;;;11.10;57.72
20622;BME280;10470;42.670;23.354;2023-02-02T11:51:00;94719.06;;;10.91;57.95
20622;BME280;10470;42.670;23.354;2023-02-02T11:53:47;94708.28;;;10.78;58.02
20622;BME280;10470;42.670;23.354;2023-02-02T11:56:35;94701.91;;;10.72;57.11
20622;BME280;10470;42.670;23.354;2023-02-02T12:07:57;94696.69;;;11.61;56.49
20622;BME280;10470;42.670;23.354;2023-02-02T12:10:50;94699.25;;;11.09;54.92
20622;BME280;10470;42.670;23.354;2023-02-02T12:13:57;94711.16;;;12.31;53.47
20622;BME280;10470;42.670;23.354;2023-02-02T12:16:52;94705.81;;;11.39;55.50
20622;BME280;10470;42.670;23.354;2023-02-02T12:35:00;94703.00;;;9.81;61.06
20622;BME280;10470;42.670;23.354;2023-02-02T12:57:13;94693.38;;;9.45;61.67
20622;BME280;10470;42.670;23.354;2023-02-02T13:00:22;94696.53;;;9.44;61.78
20622;BME280;10470;42.670;23.354;2023-02-02T13:09:30;94688.94;;;9.16;62.58
20622;BME280;10470;42.670;23.354;2023-02-02T13:12:21;94683.91;;;9.15;62.73
20622;BME280;10470;42.670;23.354;2023-02-02T13:15:12;94690.38;;;9.30;61.97
20622;BME280;10470;42.670;23.354;2023-02-02T13:18:02;94683.19;;;9.36;62.68
20622;BME280;10470;42.670;23.354;2023-02-02T13:21:01;94692.06;;;9.50;61.66
20622;BME280;10470;42.670;23.354;2023-02-02T13:23:56;94693.44;;;9.32;62.14
20622;BME280;10470;42.670;23.354;2023-02-02T13:26:44;94688.63;;;9.36;63.24
20622;BME280;10470;42.670;23.354;2023-02-02T13:29:38;94676.75;;;9.43;63.37
20622;BME280;10470;42.670;23.354;2023-02-02T13:32:29;94670.66;;;9.17;64.39
20622;BME280;10470;42.670;23.354;2023-02-02T13:35:19;94656.13;;;9.33;64.37
20622;BME280;10470;42.670;23.354;2023-02-02T13:40:56;94668.72;;;9.39;64.63
20622;BME280;10470;42.670;23.354;2023-02-02T13:44:00;94696.81;;;12.03;53.45
20622;BME280;10470;42.670;23.354;2023-02-02T13:47:00;94688.09;;;10.26;53.19
20622;BME280;10470;42.670;23.354;2023-02-02T13:49:52;94679.16;;;9.63;58.79
20622;BME280;10470;42.670;23.354;2023-02-02T14:01:46;94698.69;;;13.84;48.90
20622;BME280;10470;42.670;23.354;2023-02-02T14:04:33;94701.38;;;11.78;49.90
20622;BME280;10470;42.670;23.354;2023-02-02T14:07:25;94685.16;;;13.26;49.19
20622;BME280;10470;42.670;23.354;2023-02-02T14:10:37;94703.31;;;10.77;53.58
20622;BME280;10470;42.670;23.354;2023-02-02T14:13:27;94687.63;;;10.49;61.63
20622;BME280;10470;42.670;23.354;2023-02-02T14:22:45;94671.03;;;8.20;100.00
20622;BME280;10470;42.670;23.354;2023-02-02T14:28:41;94681.88;;;8.33;100.00
20622;BME280;10470;42.670;23.354;2023-02-02T14:31:40;94681.44;;;8.09;100.00
20622;BME280;10470;42.670;23.354;2023-02-02T14:40:21;94691.59;;;7.79;100.00
20622;BME280;10470;42.670;23.354;2023-02-02T14:44:04;94715.94;;;7.25;100.00
20622;BME280;10470;42.670;23.354;2023-02-02T14:46:35;94739.75;;;7.17;100.00
20622;BME280;10470;42.670;23.354;2023-02-02T14:49:24;94762.59;;;6.50;100.00
20622;BME280;10470;42.670;23.354;2023-02-02T14:52:20;94776.41;;;6.20;100.00
20622;BME280;10470;42.670;23.354;2023-02-02T14:55:16;94790.84;;;5.73;100.00
20622;BME280;10470;42.670;23.354;2023-02-02T14:58:03;94804.69;;;5.55;100.00
20622;BME280;10470;42.670;23.354;2023-02-02T15:10:08;94824.94;;;4.46;100.00
20622;BME280;10470;42.670;23.354;2023-02-02T15:13:03;94835.56;;;4.56;100.00
20622;BME280;10470;42.670;23.354;2023-02-02T15:16:00;94837.94;;;4.24;100.00
20622;BME280;10470;42.670;23.354;2023-02-02T15:18:57;94861.53;;;4.16;100.00
20622;BME280;10470;42.670;23.354;2023-02-02T15:21:46;94840.66;;;3.89;100.00
20622;BME280;10470;42.670;23.354;2023-02-02T15:24:34;94862.22;;;3.89;100.00
20622;BME280;10470;42.670;23.354;2023-02-02T15:27:21;94873.50;;;3.77;100.00
20622;BME280;10470;42.670;23.354;2023-02-02T15:30:11;94871.63;;;3.70;100.00
20622;BME280;10470;42.670;23.354;2023-02-02T15:33:01;94861.78;;;3.57;100.00
20622;BME280;10470;42.670;23.354;2023-02-02T15:35:51;94872.56;;;3.57;100.00
20622;BME280;10470;42.670;23.354;2023-02-02T15:38:39;94869.53;;;3.51;100.00
20622;BME280;10470;42.670;23.354;2023-02-02T15:41:29;94861.19;;;3.38;100.00
20622;BME280;10470;42.670;23.354;2023-02-02T15:44:20;94847.81;;;3.27;100.00
20622;BME280;10470;42.670;23.354;2023-02-02T15:47:24;94863.25;;;3.20;100.00
20622;BME280;10470;42.670;23.354;2023-02-02T15:50:19;94872.56;;;3.08;100.00
20622;BME280;10470;42.670;23.354;2023-02-02T15:53:05;94876.94;;;2.91;100.00
20622;BME280;10470;42.670;23.354;2023-02-02T15:55:51;94868.66;;;3.16;100.00
20622;BME280;10470;42.670;23.354;2023-02-02T15:58:37;94876.81;;;3.05;100.00
20622;BME280;10470;42.670;23.354;2023-02-02T16:01:26;94889.91;;;3.03;100.00
20622;BME280;10470;42.670;23.354;2023-02-02T16:04:20;94878.03;;;2.97;100.00
20622;BME280;10470;42.670;23.354;2023-02-02T16:07:18;94886.41;;;3.10;100.00
20622;BME280;10470;42.670;23.354;2023-02-02T16:10:06;94888.34;;;3.06;100.00
20622;BME280;10470;42.670;23.354;2023-02-02T16:12:52;94871.00;;;3.11;100.00
20622;BME280;10470;42.670;23.354;2023-02-02T16:15:38;94882.25;;;3.02;100.00
20622;BME280;10470;42.670;23.354;2023-02-02T16:18:23;94890.22;;;3.13;100.00
20622;BME280;10470;42.670;23.354;2023-02-02T16:21:22;94927.22;;;2.98;100.00
20622;BME280;10470;42.670;23.354;2023-02-02T16:24:18;94899.81;;;3.14;100.00
20622;BME280;10470;42.670;23.354;2023-02-02T16:27:09;94912.88;;;3.19;100.00
20622;BME280;10470;42.670;23.354;2023-02-02T16:29:59;94920.28;;;3.04;100.00
20622;BME280;10470;42.670;23.354;2023-02-02T16:32:45;94900.53;;;3.21;100.00
20622;BME280;10470;42.670;23.354;2023-02-02T16:35:37;94915.97;;;3.17;100.00
20622;BME280;10470;42.670;23.354;2023-02-02T16:38:33;94911.81;;;3.09;100.00
20622;BME280;10470;42.670;23.354;2023-02-02T16:41:43;94917.56;;;3.08;100.00
20622;BME280;10470;42.670;23.354;2023-02-02T16:44:41;94905.28;;;3.06;100.00
20622;BME280;10470;42.670;23.354;2023-02-02T16:50:24;94915.94;;;3.21;100.00
20622;BME280;10470;42.670;23.354;2023-02-02T16:53:20;94924.44;;;3.16;100.00
20622;BME280;10470;42.670;23.354;2023-02-02T16:56:06;94919.09;;;3.12;100.00
20622;BME280;10470;42.670;23.354;2023-02-02T16:58:53;94925.56;;;3.22;100.00
20622;BME280;10470;42.670;23.354;2023-02-02T17:01:44;94933.22;;;3.23;100.00
20622;BME280;10470;42.670;23.354;2023-02-02T17:04:32;94917.78;;;3.35;100.00
20622;BME280;10470;42.670;23.354;2023-02-02T17:07:19;94917.69;;;3.42;100.00
20622;BME280;10470;42.670;23.354;2023-02-02T17:13:00;94937.47;;;3.21;100.00
20622;BME280;10470;42.670;23.354;2023-02-02T17:15:50;94949.06;;;3.14;100.00
20622;BME280;10470;42.670;23.354;2023-02-02T17:18:36;94949.09;;;3.07;100.00
20622;BME280;10470;42.670;23.354;2023-02-02T17:21:23;94940.16;;;3.21;100.00